sensor_id;sensor_type;location;lat;lon;timestamp;temperature;humidity
1055;DHT22;516;51.482;7.120;2022-12-18T00:04:50;-8.20;99.90
1055;DHT22;516;51.482;7.120;2022-12-18T00:10:37;-8.30;99.90
1055;DHT22;516;51.482;7.120;2022-12-18T00:16:26;-8.30;99.90
1055;DHT22;516;51.482;7.120;2022-12-18T00:22:13;-8.30;99.90
1055;DHT22;516;51.482;7.120;2022-12-18T00:28:04;-8.20;99.90
1055;DHT22;516;51.482;7.120;2022-12-18T00:33:54;-8.20;99.90
1055;DHT22;516;51.482;7.120;2022-12-18T00:39:43;-8.20;99.90
1055;DHT22;516;51.482;7.120;2022-12-18T00:45:31;-8.30;99.90
1055;DHT22;516;51.482;7.120;2022-12-18T00:51:19;-8.30;99.90
1055;DHT22;516;51.482;7.120;2022-12-18T00:57:07;-8.30;99.90
1055;DHT22;516;51.482;7.120;2022-12-18T01:06:16;-8.50;99.90
1055;DHT22;516;51.482;7.120;2022-12-18T01:12:05;-8.40;99.90
1055;DHT22;516;51.482;7.120;2022-12-18T01:17:53;-8.60;99.90
1055;DHT22;516;51.482;7.120;2022-12-18T01:23:41;-8.30;99.90
1055;DHT22;516;51.482;7.120;2022-12-18T01:29:28;-8.40;99.90
1055;DHT22;516;51.482;7.120;2022-12-18T01:35:16;-8.30;99.90
1055;DHT22;516;51.482;7.120;2022-12-18T01:41:04;-8.50;99.90
1055;DHT22;516;51.482;7.120;2022-12-18T01:46:52;-8.40;99.90
1055;DHT22;516;51.482;7.120;2022-12-18T01:52:42;-8.40;99.90
1055;DHT22;516;51.482;7.120;2022-12-18T01:58:44;-8.40;99.90
1055;DHT22;516;51.482;7.120;2022-12-18T02:01:48;-8.40;99.90
1055;DHT22;516;51.482;7.120;2022-12-18T02:04:25;-8.50;99.90
1055;DHT22;516;51.482;7.120;2022-12-18T02:28:36;-8.40;99.90
1055;DHT22;516;51.482;7.120;2022-12-18T02:34:28;-8.30;99.90
1055;DHT22;516;51.482;7.120;2022-12-18T02:40:18;-8.40;99.90
1055;DHT22;516;51.482;7.120;2022-12-18T03:11:26;-8.10;99.90
1055;DHT22;516;51.482;7.120;2022-12-18T03:17:34;-8.00;99.90
1055;DHT22;516;51.482;7.120;2022-12-18T03:23:26;-8.40;99.90
1055;DHT22;516;51.482;7.120;2022-12-18T03:29:22;-8.40;99.90
1055;DHT22;516;51.482;7.120;2022-12-18T03:35:12;-8.40;99.90
1055;DHT22;516;51.482;7.120;2022-12-18T03:54:08;-8.40;99.90
1055;DHT22;516;51.482;7.120;2022-12-18T04:06:42;-8.80;99.90
1055;DHT22;516;51.482;7.120;2022-12-18T04:12:30;-8.60;99.90
1055;DHT22;516;51.482;7.120;2022-12-18T04:18:18;-8.60;99.90
1055;DHT22;516;51.482;7.120;2022-12-18T04:24:05;-9.00;99.90
1055;DHT22;516;51.482;7.120;2022-12-18T04:29:53;-8.90;99.90
1055;DHT22;516;51.482;7.120;2022-12-18T04:35:40;-8.90;99.90
1055;DHT22;516;51.482;7.120;2022-12-18T04:41:28;-8.90;99.90
1055;DHT22;516;51.482;7.120;2022-12-18T04:47:15;-8.90;99.90
1055;DHT22;516;51.482;7.120;2022-12-18T04:53:03;-8.90;99.90
1055;DHT22;516;51.482;7.120;2022-12-18T04:58:51;-8.80;99.90
1055;DHT22;516;51.482;7.120;2022-12-18T05:01:46;-8.70;99.90
1055;DHT22;516;51.482;7.120;2022-12-18T05:04:11;-8.80;99.90
1055;DHT22;516;51.482;7.120;2022-12-18T05:09:59;-8.90;99.90
1055;DHT22;516;51.482;7.120;2022-12-18T05:15:52;-8.90;99.90
1055;DHT22;516;51.482;7.120;2022-12-18T05:21:40;-8.90;99.90
1055;DHT22;516;51.482;7.120;2022-12-18T05:27:27;-9.00;99.90
1055;DHT22;516;51.482;7.120;2022-12-18T05:33:15;-9.00;99.90
1055;DHT22;516;51.482;7.120;2022-12-18T05:39:03;-9.10;99.90
1055;DHT22;516;51.482;7.120;2022-12-18T05:44:51;-9.30;99.90
1055;DHT22;516;51.482;7.120;2022-12-18T05:50:40;-9.20;99.90
1055;DHT22;516;51.482;7.120;2022-12-18T05:56:28;-9.20;99.90
1055;DHT22;516;51.482;7.120;2022-12-18T06:06:19;-9.20;99.90
1055;DHT22;516;51.482;7.120;2022-12-18T06:12:07;-9.20;99.90
1055;DHT22;516;51.482;7.120;2022-12-18T06:17:55;-9.20;99.90
1055;DHT22;516;51.482;7.120;2022-12-18T06:23:42;-9.30;99.90
1055;DHT22;516;51.482;7.120;2022-12-18T06:29:30;-9.20;99.90
1055;DHT22;516;51.482;7.120;2022-12-18T06:35:18;-9.30;99.90
1055;DHT22;516;51.482;7.120;2022-12-18T06:41:15;-9.10;99.90
1055;DHT22;516;51.482;7.120;2022-12-18T06:47:03;-9.10;99.90
1055;DHT22;516;51.482;7.120;2022-12-18T06:52:51;-9.20;99.90
1055;DHT22;516;51.482;7.120;2022-12-18T06:58:39;-9.30;99.90
1055;DHT22;516;51.482;7.120;2022-12-18T07:07:49;-9.30;99.90
1055;DHT22;516;51.482;7.120;2022-12-18T07:13:36;-9.40;99.90
1055;DHT22;516;51.482;7.120;2022-12-18T07:19:24;-9.30;99.90
1055;DHT22;516;51.482;7.120;2022-12-18T07:25:11;-9.30;99.90
1055;DHT22;516;51.482;7.120;2022-12-18T07:34:36;-9.10;99.90
1055;DHT22;516;51.482;7.120;2022-12-18T07:40:23;-9.00;99.90
1055;DHT22;516;51.482;7.120;2022-12-18T07:46:11;-8.80;99.90
1055;DHT22;516;51.482;7.120;2022-12-18T07:52:00;-8.50;99.90
1055;DHT22;516;51.482;7.120;2022-12-18T07:57:48;-8.50;99.90
1055;DHT22;516;51.482;7.120;2022-12-18T08:13:35;-8.10;99.90
1055;DHT22;516;51.482;7.120;2022-12-18T08:19:04;-7.90;99.90
1055;DHT22;516;51.482;7.120;2022-12-18T08:24:51;-6.10;99.90
1055;DHT22;516;51.482;7.120;2022-12-18T08:30:39;-6.10;99.90
1055;DHT22;516;51.482;7.120;2022-12-18T08:36:27;-6.50;99.90
1055;DHT22;516;51.482;7.120;2022-12-18T08:42:15;-6.30;99.90
1055;DHT22;516;51.482;7.120;2022-12-18T08:48:21;-4.90;99.90
1055;DHT22;516;51.482;7.120;2022-12-18T08:50:57;-4.10;99.90
1055;DHT22;516;51.482;7.120;2022-12-18T08:53:23;-4.70;99.90
1055;DHT22;516;51.482;7.120;2022-12-18T08:59:11;-3.70;99.90
1055;DHT22;516;51.482;7.120;2022-12-18T09:08:21;-3.00;99.90
1055;DHT22;516;51.482;7.120;2022-12-18T09:14:10;-2.70;99.90
1055;DHT22;516;51.482;7.120;2022-12-18T09:19:58;-2.80;99.90
1055;DHT22;516;51.482;7.120;2022-12-18T09:25:45;-2.70;99.90
1055;DHT22;516;51.482;7.120;2022-12-18T09:31:33;-2.50;99.90
1055;DHT22;516;51.482;7.120;2022-12-18T09:37:21;-0.80;98.90
1055;DHT22;516;51.482;7.120;2022-12-18T09:49:42;0.70;84.70
1055;DHT22;516;51.482;7.120;2022-12-18T10:01:21;0.10;99.90
1055;DHT22;516;51.482;7.120;2022-12-18T10:03:48;-0.40;99.90
1055;DHT22;516;51.482;7.120;2022-12-18T10:30:46;3.60;18.60
1055;DHT22;516;51.482;7.120;2022-12-18T10:36:34;3.80;17.70
1055;DHT22;516;51.482;7.120;2022-12-18T10:42:22;3.80;19.50
1055;DHT22;516;51.482;7.120;2022-12-18T10:48:22;3.90;15.30
1055;DHT22;516;51.482;7.120;2022-12-18T11:00:43;4.50;15.60
1055;DHT22;516;51.482;7.120;2022-12-18T11:07:01;4.40;14.50
1055;DHT22;516;51.482;7.120;2022-12-18T11:12:51;4.20;14.80
1055;DHT22;516;51.482;7.120;2022-12-18T11:18:38;3.90;15.80
1055;DHT22;516;51.482;7.120;2022-12-18T11:36:13;4.10;15.50
1055;DHT22;516;51.482;7.120;2022-12-18T11:48:52;4.00;16.20
1055;DHT22;516;51.482;7.120;2022-12-18T11:55:16;3.90;14.70
1055;DHT22;516;51.482;7.120;2022-12-18T12:54:04;4.20;11.70
1055;DHT22;516;51.482;7.120;2022-12-18T13:00:09;4.10;10.90
1055;DHT22;516;51.482;7.120;2022-12-18T13:13:07;4.10;10.90
1055;DHT22;516;51.482;7.120;2022-12-18T13:18:56;4.00;11.90
1055;DHT22;516;51.482;7.120;2022-12-18T13:24:46;3.90;11.50
1055;DHT22;516;51.482;7.120;2022-12-18T13:36:30;3.70;12.00
1055;DHT22;516;51.482;7.120;2022-12-18T13:48:26;3.40;14.20
1055;DHT22;516;51.482;7.120;2022-12-18T14:00:43;3.20;15.10
1055;DHT22;516;51.482;7.120;2022-12-18T14:26:29;2.90;16.50
1055;DHT22;516;51.482;7.120;2022-12-18T14:32:19;2.70;17.60
1055;DHT22;516;51.482;7.120;2022-12-18T14:34:53;2.80;17.10
1055;DHT22;516;51.482;7.120;2022-12-18T14:37:37;2.60;17.70
1055;DHT22;516;51.482;7.120;2022-12-18T14:43:27;2.70;17.20
1055;DHT22;516;51.482;7.120;2022-12-18T14:49:26;2.60;17.60
1055;DHT22;516;51.482;7.120;2022-12-18T14:55:18;2.70;16.80
1055;DHT22;516;51.482;7.120;2022-12-18T15:01:06;2.50;17.30
1055;DHT22;516;51.482;7.120;2022-12-18T15:10:53;2.40;18.50
1055;DHT22;516;51.482;7.120;2022-12-18T15:16:41;2.30;19.10
1055;DHT22;516;51.482;7.120;2022-12-18T15:22:32;2.50;17.20
1055;DHT22;516;51.482;7.120;2022-12-18T15:28:29;2.40;17.40
1055;DHT22;516;51.482;7.120;2022-12-18T15:34:22;2.30;18.30
1055;DHT22;516;51.482;7.120;2022-12-18T15:40:15;2.30;17.50
1055;DHT22;516;51.482;7.120;2022-12-18T15:46:06;2.30;17.70
1055;DHT22;516;51.482;7.120;2022-12-18T15:51:57;2.30;18.10
1055;DHT22;516;51.482;7.120;2022-12-18T15:57:46;2.30;19.40
1055;DHT22;516;51.482;7.120;2022-12-18T16:03:34;2.20;20.30
1055;DHT22;516;51.482;7.120;2022-12-18T16:06:20;2.20;21.30
1055;DHT22;516;51.482;7.120;2022-12-18T16:08:46;2.10;22.50
1055;DHT22;516;51.482;7.120;2022-12-18T16:14:34;2.10;23.30
1055;DHT22;516;51.482;7.120;2022-12-18T16:20:22;2.10;24.60
1055;DHT22;516;51.482;7.120;2022-12-18T16:26:10;2.10;27.10
1055;DHT22;516;51.482;7.120;2022-12-18T16:32:00;2.00;29.00
1055;DHT22;516;51.482;7.120;2022-12-18T16:37:48;2.00;31.70
1055;DHT22;516;51.482;7.120;2022-12-18T16:43:35;1.90;34.20
1055;DHT22;516;51.482;7.120;2022-12-18T16:49:23;1.90;39.50
1055;DHT22;516;51.482;7.120;2022-12-18T16:55:11;1.90;40.60
1055;DHT22;516;51.482;7.120;2022-12-18T17:00:59;1.90;44.30
1055;DHT22;516;51.482;7.120;2022-12-18T17:16:44;1.80;54.90
1055;DHT22;516;51.482;7.120;2022-12-18T17:22:32;1.80;58.10
1055;DHT22;516;51.482;7.120;2022-12-18T17:28:20;1.70;61.20
1055;DHT22;516;51.482;7.120;2022-12-18T17:34:12;1.80;63.90
1055;DHT22;516;51.482;7.120;2022-12-18T17:40:00;1.70;66.40
1055;DHT22;516;51.482;7.120;2022-12-18T17:45:48;1.70;69.90
1055;DHT22;516;51.482;7.120;2022-12-18T17:51:36;1.70;73.00
1055;DHT22;516;51.482;7.120;2022-12-18T17:57:24;1.70;71.60
1055;DHT22;516;51.482;7.120;2022-12-18T18:03:11;1.70;71.30
1055;DHT22;516;51.482;7.120;2022-12-18T18:08:50;1.60;70.50
1055;DHT22;516;51.482;7.120;2022-12-18T18:14:38;1.60;69.60
1055;DHT22;516;51.482;7.120;2022-12-18T18:23:46;1.60;67.10
1055;DHT22;516;51.482;7.120;2022-12-18T18:29:34;1.60;64.80
1055;DHT22;516;51.482;7.120;2022-12-18T18:35:22;1.50;65.80
1055;DHT22;516;51.482;7.120;2022-12-18T18:41:10;1.50;66.30
1055;DHT22;516;51.482;7.120;2022-12-18T18:46:58;1.50;67.50
1055;DHT22;516;51.482;7.120;2022-12-18T18:52:46;1.50;64.60
1055;DHT22;516;51.482;7.120;2022-12-18T18:58:33;1.40;70.90
1055;DHT22;516;51.482;7.120;2022-12-18T19:04:22;1.40;70.00
1055;DHT22;516;51.482;7.120;2022-12-18T19:13:32;1.50;69.70
1055;DHT22;516;51.482;7.120;2022-12-18T19:19:20;1.50;69.60
1055;DHT22;516;51.482;7.120;2022-12-18T19:25:08;1.40;72.80
1055;DHT22;516;51.482;7.120;2022-12-18T19:31:01;1.50;69.90
1055;DHT22;516;51.482;7.120;2022-12-18T19:36:50;1.50;67.00
1055;DHT22;516;51.482;7.120;2022-12-18T19:42:40;1.40;69.00
1055;DHT22;516;51.482;7.120;2022-12-18T19:48:28;1.40;65.40
1055;DHT22;516;51.482;7.120;2022-12-18T19:54:16;1.40;64.00
1055;DHT22;516;51.482;7.120;2022-12-18T20:00:04;1.40;62.80
1055;DHT22;516;51.482;7.120;2022-12-18T20:05:33;1.40;60.30
1055;DHT22;516;51.482;7.120;2022-12-18T20:11:24;1.50;59.10
1055;DHT22;516;51.482;7.120;2022-12-18T20:17:11;1.50;58.90
1055;DHT22;516;51.482;7.120;2022-12-18T20:22:59;1.50;57.60
1055;DHT22;516;51.482;7.120;2022-12-18T20:28:47;1.50;57.20
1055;DHT22;516;51.482;7.120;2022-12-18T20:34:35;1.50;58.10
1055;DHT22;516;51.482;7.120;2022-12-18T20:40:24;1.50;63.40
1055;DHT22;516;51.482;7.120;2022-12-18T20:46:14;1.50;73.20
1055;DHT22;516;51.482;7.120;2022-12-18T20:52:02;1.50;75.80
1055;DHT22;516;51.482;7.120;2022-12-18T20:57:50;1.50;85.80
1055;DHT22;516;51.482;7.120;2022-12-18T21:03:40;1.50;92.30
1055;DHT22;516;51.482;7.120;2022-12-18T21:13:30;1.30;99.90
1055;DHT22;516;51.482;7.120;2022-12-18T21:19:21;1.30;99.90
1055;DHT22;516;51.482;7.120;2022-12-18T21:25:09;1.20;99.90
1055;DHT22;516;51.482;7.120;2022-12-18T21:30:57;1.30;99.90
1055;DHT22;516;51.482;7.120;2022-12-18T21:36:46;1.40;99.90
1055;DHT22;516;51.482;7.120;2022-12-18T21:42:34;1.40;99.90
1055;DHT22;516;51.482;7.120;2022-12-18T21:48:41;1.40;99.90
1055;DHT22;516;51.482;7.120;2022-12-18T21:54:30;1.50;99.90
1055;DHT22;516;51.482;7.120;2022-12-18T22:00:18;1.60;99.90
1055;DHT22;516;51.482;7.120;2022-12-18T22:06:06;1.50;99.90
1055;DHT22;516;51.482;7.120;2022-12-18T22:09:00;1.60;99.90
1055;DHT22;516;51.482;7.120;2022-12-18T22:11:25;1.60;99.90
1055;DHT22;516;51.482;7.120;2022-12-18T22:17:13;1.60;99.90
1055;DHT22;516;51.482;7.120;2022-12-18T22:23:02;1.60;99.90
1055;DHT22;516;51.482;7.120;2022-12-18T22:28:50;1.60;99.90
1055;DHT22;516;51.482;7.120;2022-12-18T22:34:57;1.60;99.90
1055;DHT22;516;51.482;7.120;2022-12-18T22:40:45;1.60;99.90
1055;DHT22;516;51.482;7.120;2022-12-18T22:46:36;1.60;99.90
1055;DHT22;516;51.482;7.120;2022-12-18T22:52:24;1.60;99.90
1055;DHT22;516;51.482;7.120;2022-12-18T22:58:12;1.60;99.90
1055;DHT22;516;51.482;7.120;2022-12-18T23:04:00;1.60;99.90
1055;DHT22;516;51.482;7.120;2022-12-18T23:13:32;1.70;99.90
1055;DHT22;516;51.482;7.120;2022-12-18T23:19:21;1.70;99.90
1055;DHT22;516;51.482;7.120;2022-12-18T23:25:09;1.70;99.90
1055;DHT22;516;51.482;7.120;2022-12-18T23:47:44;1.80;99.90
1055;DHT22;516;51.482;7.120;2022-12-18T23:53:33;1.80;99.90
1055;DHT22;516;51.482;7.120;2022-12-18T23:59:21;2.00;99.90
